SARFSARP

Guest
Details From SARF - FORMOSA
To SARP - POSADAS
Flight Number -
Tags generated
Created
Modified
Stats Distance 143 nm / 265 km
Max Altitude 19,000 ft / 5,791 m
Waypoints 3
Social Downloads 0
Likes 0
Share VATSIM

Download

Looking for another format? Having issues loading an existing format? Contact us
Advertisement - Login to hide

Notes

Basic altitude profile: - Ascent Rate: 2500ft/min - Ascent Speed: 250kts - Cruise Altitude: 35000ft - Cruise Speed: 420kts - Descent Rate: 1500ft/min - Descent Speed: 250kts Options: - Use NATs: yes - Use PACOTS: yes - Use low airways: yes - Use high airways: yes

Route

SARF SAMGU SARP

ID Type Via Altitude Latitude Longitude Leg Dist Tot Dist Heading (true) Name
O SARF APT - 0 ft / 0 m -26.21272˚ -58.22811˚ - 0 nm - FORMOSA
SAMGU FIX - 19,000 ft / 5,791 m -26.85500˚ -57.54167˚ 53 nm 53 nm 136° / 136° -
O SARP APT - 0 ft / 0 m -27.38584˚ -55.97073˚ 89 nm 143 nm 111° / 110° POSADAS

Altitude Profile

Advertisement - Login to hide

SARF

Details ICAO SARF (FMA)
Name FORMOSA
Region Argentina
Timezone America/Argentina/Cordoba (UTC-3.0)
Stats Elevation 194 ft / 59 m (AMSL)
Location -26.212722° -58.228111°
Runways 1
Magnetic Variation 13.231° W

METAR

SARF 121700Z 14005KT CAVOK 34/15 Q1009

Decode

TAF

TAF SARF 121100Z 1212/1312 09005KT CAVOK TX35/1218Z TN19/1309Z

Decode

Departure Runways

ID Width Length Bearing (true) Bearing (mag) Surface Threshold Offset Overrun Length
04 100 ft / 30 m 5,922 ft / 1,805 m 24.88° 38.11° Asphalt 0 ft / 0 m 65 ft / 20 m
22 100 ft / 30 m 5,922 ft / 1,805 m 204.88° 218.11° Asphalt 0 ft / 0 m 65 ft / 20 m

SARP

Details ICAO SARP (PSS)
Name POSADAS
Region Argentina
Timezone America/Argentina/Cordoba (UTC-3.0)
Stats Elevation 430 ft / 131 m (AMSL)
Location -27.385838° -55.970726°
Runways 1
Magnetic Variation 14.548° W

METAR

SARP 121700Z 05005KT CAVOK 32/16 Q1011

Decode

TAF

TAF SARP 121100Z 1212/1312 14005KT CAVOK TX32/1218Z TN18/1309Z

Decode

Destination Runways

ID Width Length Bearing (true) Bearing (mag) Surface Threshold Offset Overrun Length
01 98 ft / 30 m 7,433 ft / 2,266 m 359.33° 13.88° Asphalt 0 ft / 0 m 75 ft / 23 m
19 98 ft / 30 m 7,433 ft / 2,266 m 179.33° 193.88° Asphalt 0 ft / 0 m 75 ft / 23 m

Approach Navaids

Runway Type Ident Frequency Range Bearing (true) Bearing (mag) Slope Elevation
19 Localiser PO 109.90 MHz 18 nm / 33 km 178.76° 193.31° - 430 ft / 131 m (AMSL)
19 Glidescope PO 109.90 MHz 10 nm / 19 km 179.33° 193.88° 3.00° 430 ft / 131 m (AMSL)
19 DME PO 109.90 MHz 18 nm / 33 km - - - 429 ft / 131 m (AMSL)